Terminal Aerodrome Forecast
Issued by NWS Goodland, KS

Home | Current Version | Previous Version | Text Only | Print | Product List | Glossary On
Versions: 1 2 3 4 5 6 7 8 9 10 11 12 13 14 15 16 17 18 19
030
FTUS43 KGLD 301722
TAFGLD
TAF
KGLD 301722Z 3018/3118 VRB05KT P6SM SCT012 BKN025
     FM301900 VRB05KT P6SM SCT020 BKN050
     FM302200 15008KT P6SM SCT150
     FM310700 13011KT 3SM BR BKN020
     FM310900 12011KT 1SM BR BKN008
     FM311100 11010KT 3/4SM BR VV003
     FM311600 11014KT 1SM BR OVC003=

USA.gov is the U.S. government's official web portal to all federal, state and local government web resources and services.